Time;durP1;ratioP1;P1;durP2;ratioP2;P2;SDS_P1;SDS_P2;PMS_P1;PMS_P2;Temp;Humidity;BMP_temperature;BMP_pressure;BME280_temperature;BME280_humidity;BME280_pressure;Samples;Min_cycle;Max_cycle;Signal;HPM_P1;HPM_P2
2021/07/03 00:01:53;;;;;;;21.10;13.33;;;;;;;12.88;94.54;101037.70;127100;1092;64262;-82
2021/07/03 00:04:20;;;;;;;20.30;14.47;;;;;;;12.84;94.15;101042.55;127092;1093;64181;-82
2021/07/03 00:06:47;;;;;;;19.20;12.87;;;;;;;12.82;94.40;101038.42;126784;1093;64294;-82
2021/07/03 00:09:15;;;;;;;19.27;13.27;;;;;;;12.79;94.43;101041.43;125096;1093;64409;-81
2021/07/03 00:11:43;;;;;;;18.73;12.67;;;;;;;12.78;94.47;101037.13;125225;1093;64347;-81
2021/07/03 00:14:11;;;;;;;19.43;12.50;;;;;;;12.72;94.27;101028.02;125335;1093;64228;-82
2021/07/03 00:16:39;;;;;;;25.43;14.23;;;;;;;12.67;94.33;101033.06;125476;1093;64288;-83
2021/07/03 00:19:07;;;;;;;24.57;14.57;;;;;;;12.62;94.53;101030.95;125250;1093;64285;-82
2021/07/03 00:21:34;;;;;;;21.33;14.90;;;;;;;12.56;94.72;101031.67;125164;1092;64291;-81
2021/07/03 00:24:01;;;;;;;22.05;15.40;;;;;;;12.51;94.71;101025.22;125025;1093;64307;-82
2021/07/03 00:26:28;;;;;;;22.70;14.83;;;;;;;12.46;95.04;101030.27;125088;1093;64211;-81
2021/07/03 00:28:55;;;;;;;22.07;16.40;;;;;;;12.40;95.33;101032.62;125085;1093;64303;-80
2021/07/03 00:31:22;;;;;;;23.13;15.27;;;;;;;12.37;95.35;101024.19;125108;1092;64237;-80
2021/07/03 00:33:50;;;;;;;25.23;16.10;;;;;;;12.35;95.86;101028.86;125079;1093;64375;-79
2021/07/03 00:36:17;;;;;;;20.70;15.40;;;;;;;12.30;95.86;101028.55;125197;1093;64514;-80
2021/07/03 00:38:44;;;;;;;23.53;16.10;;;;;;;12.27;96.08;101029.73;125107;1092;64288;-79
2021/07/03 00:41:11;;;;;;;21.30;15.00;;;;;;;12.23;96.40;101029.25;125136;1093;64288;-79
2021/07/03 00:43:38;;;;;;;25.00;16.60;;;;;;;12.21;96.72;101025.94;125625;1093;64432;-79
2021/07/03 00:46:05;;;;;;;24.60;16.97;;;;;;;12.19;96.65;101022.63;125189;1092;64304;-80
2021/07/03 00:48:32;;;;;;;24.87;16.60;;;;;;;12.16;96.79;101025.66;125160;1093;64179;-80
2021/07/03 00:51:00;;;;;;;28.97;18.43;;;;;;;12.16;97.40;101016.86;125110;1093;64288;-80
2021/07/03 00:53:27;;;;;;;24.20;16.13;;;;;;;12.17;97.64;101023.82;125182;1093;65475;-79
2021/07/03 00:55:55;;;;;;;25.50;16.35;;;;;;;12.16;97.62;101025.66;125045;1092;66164;-80
2021/07/03 00:58:22;;;;;;;24.43;16.53;;;;;;;12.17;97.89;101027.30;125180;1093;64297;-79
2021/07/03 01:00:50;;;;;;;23.43;15.53;;;;;;;12.17;97.69;101029.14;125109;1093;64200;-79
2021/07/03 01:03:17;;;;;;;29.55;17.05;;;;;;;12.16;97.80;101028.32;125089;1093;64409;-79
2021/07/03 01:05:44;;;;;;;22.03;15.13;;;;;;;12.17;98.18;101039.78;124987;1093;64285;-82
2021/07/03 01:08:11;;;;;;;22.30;15.47;;;;;;;12.17;98.12;101040.59;125210;1093;64355;-81
2021/07/03 01:10:38;;;;;;;24.20;16.17;;;;;;;12.17;98.06;101032.62;125236;1093;64285;-83
2021/07/03 01:13:05;;;;;;;26.70;15.93;;;;;;;12.17;97.95;101029.14;126159;1093;64422;-81
2021/07/03 01:15:32;;;;;;;26.20;15.90;;;;;;;12.17;97.92;101026.48;127247;1093;64214;-83
2021/07/03 01:18:00;;;;;;;29.75;16.35;;;;;;;12.15;97.64;101026.64;125775;1092;64285;-83
2021/07/03 01:20:27;;;;;;;29.73;15.80;;;;;;;12.10;97.31;101029.02;125588;1093;64236;-83
2021/07/03 01:22:56;;;;;;;26.17;16.57;;;;;;;12.05;97.16;101023.42;127598;1093;64117;-81
2021/07/03 01:25:23;;;;;;;23.77;15.47;;;;;;;12.04;97.24;101019.91;127187;1093;64211;-82
2021/07/03 01:28:03;;;;;;;24.87;15.90;;;;;;;11.99;97.03;101016.96;127844;1093;64168;-81
2021/07/03 01:30:32;;;;;;;23.37;16.30;;;;;;;11.96;97.27;101017.30;125320;1093;64372;-82
2021/07/03 01:32:59;;;;;;;26.63;16.77;;;;;;;11.94;97.55;101018.48;125375;1093;64419;-80
2021/07/03 01:35:30;;;;;;;21.83;15.37;;;;;;;11.91;97.43;101017.02;126717;1092;64201;-83
2021/07/03 01:37:58;;;;;;;23.73;14.43;;;;;;;11.90;97.71;101018.03;125999;1093;64237;-82
2021/07/03 01:40:25;;;;;;;22.63;15.23;;;;;;;11.89;97.58;101016.36;127336;1092;64316;-82
2021/07/03 01:42:53;;;;;;;22.73;15.13;;;;;;;11.87;97.62;101013.02;126113;1092;64740;-81
2021/07/03 01:45:20;;;;;;;25.50;16.13;;;;;;;11.86;97.55;101013.18;126814;1093;64134;-81
2021/07/03 01:47:47;;;;;;;23.23;13.63;;;;;;;11.86;97.94;101013.18;125462;1092;64340;-81
2021/07/03 01:50:15;;;;;;;24.03;15.70;;;;;;;11.87;98.23;101012.19;127084;1093;64285;-82
2021/07/03 01:52:42;;;;;;;21.73;15.03;;;;;;;11.89;98.33;101004.91;125707;1092;64304;-82
2021/07/03 01:55:12;;;;;;;22.97;14.73;;;;;;;11.89;97.95;100999.59;127568;1093;63114;-81
2021/07/03 01:57:39;;;;;;;20.53;14.00;;;;;;;11.87;97.61;100998.91;126675;1092;63053;-81
2021/07/03 02:00:09;;;;;;;20.80;13.95;;;;;;;11.84;97.73;101002.75;127804;1093;64262;-83
2021/07/03 02:02:36;;;;;;;24.10;15.20;;;;;;;11.83;97.93;100991.27;125714;1092;64304;-83
2021/07/03 02:05:05;;;;;;;24.40;14.70;;;;;;;11.81;97.61;100995.11;127024;1093;64178;-83
2021/07/03 02:07:32;;;;;;;26.10;14.37;;;;;;;11.80;97.65;100993.47;125266;1092;64301;-80
2021/07/03 02:10:00;;;;;;;21.87;13.57;;;;;;;11.79;98.16;100995.30;125345;1093;64297;-81
2021/07/03 02:12:27;;;;;;;22.30;14.53;;;;;;;11.79;98.00;100989.14;125725;1093;64301;-82
2021/07/03 02:14:54;;;;;;;23.07;13.43;;;;;;;11.75;97.78;100994.00;125228;1093;64288;-82
2021/07/03 02:17:21;;;;;;;21.00;13.47;;;;;;;11.74;97.66;100999.48;125193;1092;64285;-82
2021/07/03 02:19:49;;;;;;;24.87;15.37;;;;;;;11.70;97.26;100991.02;125645;1092;64307;-82
2021/07/03 02:22:16;;;;;;;24.17;15.77;;;;;;;11.65;97.20;100982.76;127773;1091;64310;-82
2021/07/03 02:24:43;;;;;;;25.07;14.33;;;;;;;11.61;97.35;100992.08;126044;1091;64285;-80
2021/07/03 02:27:10;;;;;;;26.80;14.93;;;;;;;11.59;97.92;100997.56;125178;1093;64908;-80
2021/07/03 02:29:37;;;;;;;18.67;13.73;;;;;;;11.57;97.85;100999.56;125180;1093;64253;-80
2021/07/03 02:32:05;;;;;;;22.27;14.37;;;;;;;11.58;97.96;101003.89;125253;1092;64418;-82
2021/07/03 02:34:32;;;;;;;31.53;16.40;;;;;;;11.55;97.99;100998.91;125135;1092;64281;-80
2021/07/03 02:36:59;;;;;;;27.90;16.07;;;;;;;11.54;98.18;100996.41;125277;1092;64304;-81
2021/07/03 02:39:26;;;;;;;22.23;15.30;;;;;;;11.53;98.55;100997.43;125222;1091;64330;-80
2021/07/03 02:41:53;;;;;;;24.95;16.15;;;;;;;11.51;98.68;101002.09;125105;1093;64626;-80
2021/07/03 02:44:20;;;;;;;27.93;15.90;;;;;;;11.51;98.45;100996.77;125295;1093;64298;-81
2021/07/03 02:46:47;;;;;;;25.83;16.63;;;;;;;11.49;98.81;100998.78;125190;1093;64480;-80
2021/07/03 02:49:14;;;;;;;24.63;16.43;;;;;;;11.49;99.08;100996.94;125213;1093;64304;-80
2021/07/03 02:51:42;;;;;;;30.50;18.50;;;;;;;11.50;99.57;101001.27;125172;1093;64343;-79
2021/07/03 02:54:09;;;;;;;26.40;16.87;;;;;;;11.50;99.54;100998.61;125305;1092;64185;-82
2021/07/03 02:56:36;;;;;;;23.83;16.93;;;;;;;11.52;100.00;100995.79;125372;1093;64364;-80
2021/07/03 02:59:03;;;;;;;26.65;17.10;;;;;;;11.54;100.00;100999.92;125179;1093;64317;-80
2021/07/03 03:01:30;;;;;;;25.33;16.47;;;;;;;11.54;99.72;100996.41;125497;1092;64301;-79
2021/07/03 03:03:57;;;;;;;26.80;18.20;;;;;;;11.56;100.00;101007.70;125350;1092;64280;-80
2021/07/03 03:06:24;;;;;;;24.53;16.50;;;;;;;11.59;100.00;101007.37;125351;1093;64285;-80
2021/07/03 03:08:51;;;;;;;23.93;15.20;;;;;;;11.59;100.00;101015.34;125401;1093;64279;-80
2021/07/03 03:11:19;;;;;;;26.70;16.50;;;;;;;11.58;99.72;101018.98;125548;1093;64236;-80
2021/07/03 03:13:46;;;;;;;23.23;14.93;;;;;;;11.58;99.43;101013.66;125797;1093;64288;-81
2021/07/03 03:16:13;;;;;;;28.30;15.90;;;;;;;11.55;99.45;101014.84;125395;1093;64287;-82
2021/07/03 03:18:40;;;;;;;19.27;12.20;;;;;;;11.53;99.33;101013.38;125201;1092;64262;-81
2021/07/03 03:21:07;;;;;;;25.00;14.37;;;;;;;11.51;99.43;101018.03;125164;1093;64211;-81
2021/07/03 03:23:34;;;;;;;21.30;15.20;;;;;;;11.52;99.87;101025.02;125166;1093;64555;-81
2021/07/03 03:26:01;;;;;;;20.97;14.50;;;;;;;11.56;100.00;101020.98;125154;1093;64381;-81
2021/07/03 03:28:28;;;;;;;21.07;14.03;;;;;;;11.59;100.00;101020.66;125066;1093;64246;-80
2021/07/03 03:30:56;;;;;;;26.53;15.27;;;;;;;11.63;100.00;101021.96;125143;1092;64301;-81
2021/07/03 03:33:23;;;;;;;26.30;15.43;;;;;;;11.67;100.00;101022.42;125179;1092;64980;-82
2021/07/03 03:36:09;;;;;;;26.10;14.37;;;;;;;11.72;100.00;101030.72;125101;1092;64453;-81
2021/07/03 03:38:36;;;;;;;22.57;13.87;;;;;;;11.73;100.00;101027.89;125088;1093;64314;-81
2021/07/03 03:41:04;;;;;;;20.77;13.50;;;;;;;11.76;100.00;101030.19;125042;1092;64275;-80
2021/07/03 03:43:31;;;;;;;22.97;13.67;;;;;;;11.80;100.00;101034.16;125155;1093;65063;-81
2021/07/03 03:45:58;;;;;;;22.27;14.63;;;;;;;11.86;100.00;101039.77;125365;1093;64336;-82
2021/07/03 03:48:25;;;;;;;21.13;15.10;;;;;;;11.92;100.00;101036.44;125045;1093;64240;-79
2021/07/03 03:50:53;;;;;;;22.10;14.17;;;;;;;11.97;100.00;101026.95;125241;1092;64358;-79
2021/07/03 03:53:20;;;;;;;29.00;15.57;;;;;;;12.02;100.00;101029.08;125255;1093;64323;-79
2021/07/03 03:55:47;;;;;;;21.53;13.10;;;;;;;12.07;99.89;101036.52;125046;1092;64317;-79
2021/07/03 03:58:14;;;;;;;23.77;13.70;;;;;;;12.12;100.00;101029.67;125039;1092;64305;-79
2021/07/03 04:00:42;;;;;;;24.33;14.03;;;;;;;12.17;99.80;101032.62;125201;1093;64149;-79
2021/07/03 04:03:09;;;;;;;23.03;13.97;;;;;;;12.23;99.75;101031.91;125218;1092;64295;-79
2021/07/03 04:05:36;;;;;;;22.50;15.03;;;;;;;12.29;99.31;101032.23;124864;1093;64262;-79
2021/07/03 04:08:04;;;;;;;19.40;12.13;;;;;;;12.34;99.43;101029.84;125009;1093;64208;-79
2021/07/03 04:10:32;;;;;;;20.27;13.37;;;;;;;12.40;99.20;101029.13;124948;1093;64293;-82
2021/07/03 04:12:59;;;;;;;23.13;12.53;;;;;;;12.46;99.09;101031.09;125011;1092;64361;-79
2021/07/03 04:15:27;;;;;;;21.13;13.20;;;;;;;12.52;98.67;101027.71;125102;1092;64211;-83
2021/07/03 04:17:54;;;;;;;24.93;14.33;;;;;;;12.57;98.40;101030.64;125123;1093;64300;-83
2021/07/03 04:20:21;;;;;;;22.47;13.53;;;;;;;12.63;98.18;101029.94;125110;1092;64261;-82
2021/07/03 04:22:48;;;;;;;22.33;13.00;;;;;;;12.69;98.04;101030.20;125083;1093;64282;-84
2021/07/03 04:25:16;;;;;;;21.93;10.67;;;;;;;12.75;97.86;101032.14;125058;1092;64875;-80
2021/07/03 04:27:43;;;;;;;20.90;12.67;;;;;;;12.81;97.80;101036.75;125054;1093;64316;-80
2021/07/03 04:30:11;;;;;;;21.20;12.73;;;;;;;12.88;97.84;101024.39;125034;1092;64284;-81
2021/07/03 04:32:38;;;;;;;20.77;11.53;;;;;;;12.96;97.43;101032.30;125102;1092;64233;-81
2021/07/03 04:35:07;;;;;;;21.03;12.63;;;;;;;13.02;96.92;101028.88;125074;1093;64295;-81
2021/07/03 04:37:35;;;;;;;20.15;11.60;;;;;;;13.09;96.60;101034.33;124905;1093;64457;-79
2021/07/03 04:40:06;;;;;;;18.90;12.40;;;;;;;13.17;96.78;101036.05;125107;1093;64297;-80
2021/07/03 04:42:33;;;;;;;20.10;12.65;;;;;;;13.25;96.33;101033.30;125207;1092;64307;-84
2021/07/03 04:45:00;;;;;;;21.57;12.63;;;;;;;13.31;96.46;101035.27;125051;1092;64240;-81
2021/07/03 04:47:27;;;;;;;15.90;11.13;;;;;;;13.39;95.96;101037.02;125047;1093;64213;-80
2021/07/03 04:49:54;;;;;;;18.67;11.23;;;;;;;13.45;96.00;101037.09;124870;1093;64265;-81
2021/07/03 04:52:22;;;;;;;19.30;11.97;;;;;;;13.55;95.85;101033.30;125167;1093;64332;-81
2021/07/03 04:54:49;;;;;;;17.17;11.43;;;;;;;13.64;95.60;101032.17;125545;1092;64262;-81
2021/07/03 04:57:16;;;;;;;21.20;12.43;;;;;;;13.73;95.69;101035.56;125056;1092;64266;-80
2021/07/03 04:59:44;;;;;;;22.13;12.40;;;;;;;13.84;95.54;101041.25;125029;1093;64342;-80
2021/07/03 05:02:13;;;;;;;18.53;10.50;;;;;;;13.91;95.03;101043.16;125117;1091;64342;-80
2021/07/03 05:04:44;;;;;;;19.37;11.63;;;;;;;14.00;94.90;101034.02;124967;1092;65010;-80
2021/07/03 05:07:11;;;;;;;18.37;11.83;;;;;;;14.10;94.44;101042.55;124992;1093;64230;-83
2021/07/03 05:09:38;;;;;;;16.53;10.83;;;;;;;14.17;94.13;101040.77;125119;1093;64265;-81
2021/07/03 05:12:06;;;;;;;21.63;13.37;;;;;;;14.25;93.96;101029.97;125192;1092;64279;-81
2021/07/03 05:14:33;;;;;;;15.97;11.70;;;;;;;14.34;93.05;101043.19;125017;1092;64288;-80
2021/07/03 05:17:01;;;;;;;17.27;11.67;;;;;;;14.41;93.02;101034.23;125172;1093;64288;-82
2021/07/03 05:19:28;;;;;;;16.83;10.97;;;;;;;14.52;93.18;101038.22;125107;1093;64314;-81
2021/07/03 05:21:55;;;;;;;18.40;12.00;;;;;;;14.62;92.85;101036.09;125128;1093;64364;-80
2021/07/03 05:24:22;;;;;;;16.90;12.37;;;;;;;14.72;91.89;101034.91;125037;1093;64301;-74
2021/07/03 05:26:49;;;;;;;18.63;11.97;;;;;;;14.80;90.97;101029.44;124882;1093;64397;-74
2021/07/03 05:29:16;;;;;;;16.37;10.87;;;;;;;14.85;91.14;101033.18;124952;1093;64286;-73
2021/07/03 05:31:43;;;;;;;17.75;11.45;;;;;;;14.93;90.74;101034.04;124935;1093;64764;-75
2021/07/03 05:34:10;;;;;;;18.07;10.70;;;;;;;15.00;91.14;101027.73;124935;1093;64301;-73
2021/07/03 05:36:38;;;;;;;16.27;11.60;;;;;;;15.11;90.74;101025.51;124924;1093;64323;-74
2021/07/03 05:39:05;;;;;;;19.10;11.50;;;;;;;15.19;90.09;101028.02;124780;1093;64355;-75
2021/07/03 05:41:34;;;;;;;18.50;11.70;;;;;;;15.29;89.47;101020.48;124689;1093;64378;-73
2021/07/03 05:44:02;;;;;;;18.43;11.53;;;;;;;15.36;89.19;101021.33;124715;1093;64327;-72
2021/07/03 05:46:30;;;;;;;17.67;12.53;;;;;;;15.45;89.29;101025.50;124899;1093;65396;-73
2021/07/03 05:49:00;;;;;;;22.80;12.73;;;;;;;15.57;88.93;101016.90;125213;1093;64282;-74
2021/07/03 05:51:28;;;;;;;15.50;10.87;;;;;;;15.65;88.28;101016.73;124871;1093;64249;-73
2021/07/03 05:53:56;;;;;;;18.23;11.03;;;;;;;15.72;88.25;101014.10;124909;1093;64284;-73
2021/07/03 05:56:25;;;;;;;20.47;11.80;;;;;;;15.83;87.99;101019.70;125062;1093;64380;-72
2021/07/03 05:58:54;;;;;;;23.13;12.30;;;;;;;15.89;87.61;101010.84;126775;1092;64231;-72
2021/07/03 06:01:23;;;;;;;14.17;10.77;;;;;;;15.95;87.40;101011.08;125111;1093;64328;-73
2021/07/03 06:03:50;;;;;;;16.83;11.63;;;;;;;16.04;87.30;101007.99;125056;1092;64655;-73
2021/07/03 06:06:17;;;;;;;16.53;10.80;;;;;;;16.14;87.18;101012.14;124893;1092;64285;-74
2021/07/03 06:08:45;;;;;;;17.10;9.20;;;;;;;16.23;86.81;100998.34;124939;1093;64291;-73
2021/07/03 06:11:15;;;;;;;14.60;9.97;;;;;;;16.34;87.25;101001.45;125099;1093;64323;-72
2021/07/03 06:13:43;;;;;;;17.53;10.90;;;;;;;16.47;86.10;100998.79;124961;1092;64377;-74
2021/07/03 06:16:10;;;;;;;12.80;10.03;;;;;;;16.58;85.55;100998.16;124873;1093;64304;-73
2021/07/03 06:18:37;;;;;;;15.65;10.30;;;;;;;16.67;84.92;100996.91;124910;1093;64288;-75
2021/07/03 06:21:04;;;;;;;14.80;9.83;;;;;;;16.78;83.94;100999.98;124632;1092;64365;-74
2021/07/03 06:23:31;;;;;;;20.33;9.87;;;;;;;16.90;83.40;100987.64;124849;1092;64301;-73
2021/07/03 06:26:00;;;;;;;17.90;9.80;;;;;;;16.99;82.37;100991.73;125163;1093;64285;-72
2021/07/03 06:28:27;;;;;;;21.70;11.63;;;;;;;17.08;82.03;100993.13;124690;1093;64848;-72
2021/07/03 06:30:55;;;;;;;14.03;11.10;;;;;;;17.16;80.67;100993.95;124929;1092;64339;-75
2021/07/03 06:33:23;;;;;;;13.20;9.90;;;;;;;17.25;82.20;100988.13;124900;1093;64358;-73
2021/07/03 06:35:51;;;;;;;15.87;10.30;;;;;;;17.34;81.08;100991.42;124931;1093;64629;-72
2021/07/03 06:38:18;;;;;;;18.87;11.13;;;;;;;17.41;79.86;100994.89;124907;1093;64304;-72
2021/07/03 06:40:45;;;;;;;11.93;7.90;;;;;;;17.46;79.84;100984.34;124879;1093;64304;-72
2021/07/03 06:43:12;;;;;;;13.50;8.23;;;;;;;17.55;80.05;100986.78;124900;1093;64237;-74
2021/07/03 06:45:40;;;;;;;16.43;10.27;;;;;;;17.63;79.73;100986.53;124919;1093;65412;-74
2021/07/03 06:48:07;;;;;;;15.60;10.37;;;;;;;17.72;79.28;100988.77;124905;1093;64287;-75
2021/07/03 06:50:34;;;;;;;14.37;10.10;;;;;;;17.75;78.17;100992.88;124979;1093;64289;-74
2021/07/03 06:53:01;;;;;;;16.67;10.90;;;;;;;17.81;78.75;100989.33;124897;1093;64298;-73
2021/07/03 06:55:28;;;;;;;14.30;10.40;;;;;;;17.92;78.63;100999.41;124869;1093;64509;-74
2021/07/03 06:57:55;;;;;;;12.77;9.50;;;;;;;18.04;78.02;100996.86;124893;1093;64330;-74
2021/07/03 07:00:22;;;;;;;13.90;10.27;;;;;;;18.17;77.07;100998.63;124873;1093;65173;-74
2021/07/03 07:02:49;;;;;;;14.30;9.47;;;;;;;18.32;77.46;101001.81;124914;1093;64303;-74
2021/07/03 07:05:19;;;;;;;13.37;8.93;;;;;;;18.38;74.91;100991.22;124890;1093;64431;-75
2021/07/03 07:07:46;;;;;;;16.83;10.20;;;;;;;18.46;75.74;100988.27;124897;1092;64211;-74
2021/07/03 07:10:13;;;;;;;14.23;10.57;;;;;;;18.60;75.42;100984.42;124764;1093;64301;-75
2021/07/03 07:12:40;;;;;;;18.10;10.83;;;;;;;18.70;74.94;100984.75;124878;1093;64297;-74
2021/07/03 07:15:09;;;;;;;18.20;9.80;;;;;;;18.83;74.95;100983.82;125022;1093;64285;-75
2021/07/03 07:17:36;;;;;;;16.83;11.20;;;;;;;18.96;75.18;100988.23;124864;1093;64393;-73
2021/07/03 07:20:05;;;;;;;12.93;8.73;;;;;;;19.06;73.45;100993.08;124903;1093;64293;-73
2021/07/03 07:22:32;;;;;;;15.80;9.57;;;;;;;19.14;73.39;100982.84;124996;1092;64307;-76
2021/07/03 07:25:00;;;;;;;18.77;9.90;;;;;;;19.27;73.13;100983.73;124867;1093;64415;-74
2021/07/03 07:27:27;;;;;;;13.37;8.23;;;;;;;19.32;72.92;100986.59;125098;1093;64282;-74
2021/07/03 07:29:55;;;;;;;15.95;10.35;;;;;;;19.39;71.69;100984.63;124914;1093;64307;-74
2021/07/03 07:32:21;;;;;;;14.70;9.80;;;;;;;19.48;71.58;100979.75;124890;1093;65374;-73
2021/07/03 07:34:49;;;;;;;15.57;10.13;;;;;;;19.58;70.93;100974.66;124878;1093;64236;-72
2021/07/03 07:37:16;;;;;;;13.97;9.40;;;;;;;19.68;71.60;100974.93;124896;1092;64204;-73
2021/07/03 07:39:44;;;;;;;14.30;8.83;;;;;;;19.82;72.05;100980.96;124943;1093;64284;-74
2021/07/03 07:42:11;;;;;;;34.87;12.03;;;;;;;19.89;69.41;100976.32;124959;1093;64480;-74
2021/07/03 07:44:38;;;;;;;18.37;9.93;;;;;;;19.98;69.92;100978.66;124913;1093;64414;-74
2021/07/03 07:47:05;;;;;;;17.60;10.53;;;;;;;20.00;69.48;100977.40;124884;1093;64293;-75
2021/07/03 07:49:32;;;;;;;12.10;8.00;;;;;;;20.13;69.92;100977.19;124895;1093;64207;-74
2021/07/03 07:51:59;;;;;;;18.30;9.83;;;;;;;20.27;67.15;100983.16;124716;1093;64409;-74
2021/07/03 07:54:26;;;;;;;13.10;8.20;;;;;;;20.41;67.65;100985.66;124876;1093;64230;-74
2021/07/03 07:56:53;;;;;;;10.93;8.00;;;;;;;20.47;66.86;100979.34;124885;1093;64208;-74
2021/07/03 07:59:20;;;;;;;15.43;8.77;;;;;;;20.66;65.38;100975.50;124950;1093;65484;-75
2021/07/03 08:01:48;;;;;;;12.97;7.80;;;;;;;20.83;65.86;100970.21;124907;1092;64394;-75
2021/07/03 08:04:15;;;;;;;10.30;6.40;;;;;;;20.94;62.95;100980.16;124847;1093;64239;-75
2021/07/03 08:06:42;;;;;;;12.87;8.10;;;;;;;21.07;64.60;100970.98;124914;1093;64415;-74
2021/07/03 08:09:09;;;;;;;13.60;8.00;;;;;;;21.10;63.67;100969.68;124808;1093;64393;-74
2021/07/03 08:11:36;;;;;;;11.70;7.13;;;;;;;21.11;63.82;100964.06;124899;1093;64948;-74
2021/07/03 08:14:06;;;;;;;11.47;8.23;;;;;;;21.12;62.77;100967.56;124934;1093;64261;-74
2021/07/03 08:16:33;;;;;;;11.53;7.60;;;;;;;21.22;63.67;100961.57;124893;1092;64230;-72
2021/07/03 08:19:01;;;;;;;10.33;7.33;;;;;;;21.31;63.54;100960.94;124880;1092;64378;-74
2021/07/03 08:21:29;;;;;;;10.43;7.27;;;;;;;21.38;63.46;100966.22;124885;1093;64220;-75
2021/07/03 08:23:56;;;;;;;10.30;7.23;;;;;;;21.28;61.12;100976.80;124686;1092;64371;-73
2021/07/03 08:26:23;;;;;;;12.83;8.13;;;;;;;21.17;61.27;100959.59;124879;1092;64406;-75
2021/07/03 08:28:50;;;;;;;12.70;7.65;;;;;;;21.02;62.47;100962.80;124851;1091;64307;-76
2021/07/03 08:31:17;;;;;;;11.83;6.97;;;;;;;20.94;62.67;100965.86;124830;1093;64352;-74
2021/07/03 08:33:44;;;;;;;9.90;6.73;;;;;;;20.92;63.02;100970.67;124904;1093;64323;-73
2021/07/03 08:36:11;;;;;;;13.03;9.07;;;;;;;20.90;63.26;100973.59;124887;1093;64630;-73
2021/07/03 08:38:38;;;;;;;10.73;6.63;;;;;;;20.80;64.39;100964.47;124898;1093;64355;-72
2021/07/03 08:41:06;;;;;;;13.13;7.63;;;;;;;20.63;62.64;100965.17;124829;1093;64361;-73
2021/07/03 08:43:33;;;;;;;12.03;7.97;;;;;;;20.51;63.94;100956.27;124911;1093;64967;-73
2021/07/03 08:46:01;;;;;;;12.17;7.50;;;;;;;20.63;64.71;100957.09;124863;1093;64289;-73
2021/07/03 08:48:28;;;;;;;11.73;7.23;;;;;;;20.87;64.91;100954.36;125195;1093;65717;-73
2021/07/03 08:50:59;;;;;;;10.43;6.67;;;;;;;21.10;62.68;100959.73;124891;1093;64304;-73
2021/07/03 08:53:27;;;;;;;10.43;7.03;;;;;;;21.40;61.53;100950.61;124994;1092;64285;-73
2021/07/03 08:55:54;;;;;;;12.60;6.75;;;;;;;21.60;60.05;100949.38;124881;1093;64282;-73
2021/07/03 08:58:21;;;;;;;10.47;6.90;;;;;;;21.62;59.83;100949.95;124919;1093;64349;-76
2021/07/03 09:00:48;;;;;;;12.65;7.10;;;;;;;21.54;59.92;100948.45;124845;1093;64742;-75
2021/07/03 09:03:21;;;;;;;7.47;5.53;;;;;;;21.39;59.81;100952.46;124894;1093;64281;-72
2021/07/03 09:05:52;;;;;;;8.70;6.30;;;;;;;21.39;60.36;100951.66;124949;1093;64291;-73
2021/07/03 09:08:21;;;;;;;10.50;5.53;;;;;;;21.49;59.83;100954.58;125065;1093;64390;-73
2021/07/03 09:10:58;;;;;;;8.65;5.70;;;;;;;21.62;59.75;100937.27;124903;1091;64283;-73
2021/07/03 09:13:25;;;;;;;9.47;5.60;;;;;;;21.80;60.32;100936.22;125460;1093;64179;-74
2021/07/03 09:15:52;;;;;;;10.57;5.23;;;;;;;21.98;57.98;100938.70;124881;1093;64208;-76
2021/07/03 09:18:19;;;;;;;9.03;5.60;;;;;;;22.22;57.42;100938.53;124897;1091;64323;-74
2021/07/03 09:20:51;;;;;;;9.63;6.57;;;;;;;22.44;56.73;100930.53;124888;1093;64348;-73
2021/07/03 09:23:35;;;;;;;9.43;6.50;;;;;;;22.57;56.46;100934.77;124902;1093;64639;-73
2021/07/03 09:26:04;;;;;;;8.00;4.30;;;;;;;22.79;57.23;100932.89;124935;1093;64284;-73
2021/07/03 09:28:37;;;;;;;6.50;4.57;;;;;;;22.74;56.11;100930.13;124937;1092;65526;-73
2021/07/03 09:31:06;;;;;;;9.30;5.67;;;;;;;22.72;55.48;100934.16;125032;1093;64307;-73
2021/07/03 09:33:44;;;;;;;6.17;4.73;;;;;;;22.64;55.24;100931.88;125071;1093;64178;-73
2021/07/03 09:36:13;;;;;;;7.53;5.37;;;;;;;22.64;55.47;100934.59;124686;1092;64215;-73
2021/07/03 09:38:49;;;;;;;8.63;5.37;;;;;;;22.57;54.44;100929.36;125000;1092;64246;-73
2021/07/03 09:41:18;;;;;;;5.63;3.97;;;;;;;22.49;56.15;100929.78;124886;1093;64257;-74
2021/07/03 09:43:48;;;;;;;8.17;5.10;;;;;;;22.38;56.82;100926.92;125045;1093;64317;-73
2021/07/03 09:46:24;;;;;;;8.60;6.37;;;;;;;22.23;56.61;100925.86;124847;1091;64386;-73
2021/07/03 09:48:54;;;;;;;7.60;5.50;;;;;;;22.11;58.39;100931.34;124939;1093;64262;-74
2021/07/03 09:51:26;;;;;;;9.03;5.77;;;;;;;22.23;57.78;100923.16;125001;1093;64281;-73
2021/07/03 09:53:56;;;;;;;7.23;5.13;;;;;;;22.45;55.27;100925.94;125308;1092;64282;-72
2021/07/03 09:56:23;;;;;;;7.13;4.77;;;;;;;22.60;52.82;100918.84;124995;1093;64288;-74
2021/07/03 09:58:51;;;;;;;7.17;4.60;;;;;;;22.85;53.10;100922.16;124854;1092;64376;-73
2021/07/03 10:01:19;;;;;;;6.53;4.43;;;;;;;23.16;54.42;100916.07;125261;1092;64304;-75
2021/07/03 10:03:46;;;;;;;6.90;4.43;;;;;;;23.38;51.77;100918.73;124690;1093;64371;-76
2021/07/03 10:06:22;;;;;;;6.37;3.53;;;;;;;23.40;50.98;100919.30;124866;1092;64285;-73
2021/07/03 10:08:58;;;;;;;7.50;5.17;;;;;;;23.32;51.19;100914.33;124877;1091;64285;-73
2021/07/03 10:11:26;;;;;;;6.83;3.90;;;;;;;23.29;52.72;100914.02;125266;1093;64421;-73
2021/07/03 10:14:05;;;;;;;9.57;5.37;;;;;;;23.20;54.16;100911.75;125047;1093;64307;-73
2021/07/03 10:16:33;;;;;;;11.60;7.17;;;;;;;23.08;55.64;100912.97;124840;1093;64322;-73
2021/07/03 10:19:17;;;;;;;10.13;7.43;;;;;;;23.25;56.38;100913.73;124902;1093;64301;-73
2021/07/03 10:21:47;;;;;;;7.47;5.60;;;;;;;23.39;54.57;100914.13;124873;1093;64626;-73
2021/07/03 10:24:19;;;;;;;10.30;6.85;;;;;;;23.55;53.57;100896.97;124874;1093;64310;-74
2021/07/03 10:26:46;;;;;;;6.87;5.33;;;;;;;23.83;53.52;100891.55;124871;1093;64293;-73
2021/07/03 10:29:23;;;;;;;7.97;5.60;;;;;;;23.83;51.40;100892.36;124886;1092;64233;-73
2021/07/03 10:31:53;;;;;;;6.90;5.60;;;;;;;23.83;52.33;100895.07;125032;1093;64281;-73
2021/07/03 10:34:28;;;;;;;6.05;4.60;;;;;;;23.87;51.74;100893.48;125003;1093;64323;-73
2021/07/03 10:37:08;;;;;;;9.30;5.43;;;;;;;24.06;50.95;100901.22;124778;1093;64712;-74
2021/07/03 10:39:35;;;;;;;7.40;5.25;;;;;;;24.11;50.59;100895.82;124933;1092;64310;-76
2021/07/03 10:42:02;;;;;;;8.33;5.83;;;;;;;24.13;50.02;100896.38;124911;1093;64288;-74
2021/07/03 10:44:38;;;;;;;5.37;3.90;;;;;;;24.07;49.99;100902.84;125127;1091;64285;-73
2021/07/03 10:47:08;;;;;;;7.53;4.63;;;;;;;24.10;49.60;100897.72;125062;1093;64285;-75
2021/07/03 10:49:37;;;;;;;5.27;3.83;;;;;;;24.27;48.63;100892.14;125001;1093;64327;-73
2021/07/03 10:52:16;;;;;;;6.10;4.80;;;;;;;24.43;48.50;100890.32;124955;1093;64262;-73
2021/07/03 10:54:44;;;;;;;7.40;4.70;;;;;;;24.51;49.52;100889.86;124899;1093;64393;-75
2021/07/03 10:57:11;;;;;;;10.07;5.27;;;;;;;24.68;47.17;100875.30;124946;1093;64346;-74
2021/07/03 10:59:41;;;;;;;6.57;4.37;;;;;;;24.86;47.84;100884.85;124909;1092;64758;-77
2021/07/03 11:02:18;;;;;;;5.57;3.97;;;;;;;24.95;46.06;100883.25;124924;1093;64217;-75
2021/07/03 11:04:50;;;;;;;5.27;4.00;;;;;;;24.95;46.18;100877.81;124901;1093;64261;-73
2021/07/03 11:07:19;;;;;;;5.37;3.30;;;;;;;25.22;47.25;100870.31;124912;1092;64240;-74
2021/07/03 11:09:47;;;;;;;7.90;4.70;;;;;;;25.56;47.83;100875.25;125021;1093;64288;-73